Nellis Air Force Base
KLSV : now visible

Airfield :











YOU CAN JOIN US ON...

 
LOGIN :

Register | Disclaimer

   EN    FR    IT 

 









Legend :    VFR   Marginal VFR   IFR   Intensive IFR   Very Intensive IFR
Visi :
Ceiling :
>= 8 km
>= 3000ft
5 to 8 km
1000 to 3000 ft
1500m to 5 km
500 to 1000 ft
800 to 1500m
200 to 500 ft
< 800m
< 200 ft
Symbols :   Thunderstorms  Fog  Heavy snow  Heavy precipitations  Wind > 20 kt






- Airport Elevation : 1870 ft


KLSV - Nellis Air Force Base

CURRENT METAR :
  • 191758Z AUTO 00000KT 10SM CLR 36/16 A2987 RMK AO2 SLPNO T03610162 10361 20248 55007 $

EXPIRED METARs :
  • 191658Z AUTO 00000KT 10SM CLR 34/17 A2989 RMK AO2 SLPNO T03400172 $
  • 191558Z AUTO 00000KT 10SM FEW210 32/19 A2989 RMK AO2 SLPNO T03200185 $

TAF TAF KLSV
Valid from the 19 at 15:00 until the 20 at 21:00 UTC


191500Z 1915/2021 30009KT 9999 BKN170 QNH2990INS
BECMG 1920/1921 09010G15KT 9999 SCT160 BKN180 QNH2980INS
TEMPO 1923/2004 VRB20G35KT VCTS FEW100CB
BECMG 2007/2008 04011KT 9999 FEW120 QNH2979INS
TEMPO 2008/2012 04015G25KT 520009 TX40/1922Z TN29/2013Z
KZLA FIR / North America



MET'MAP, your aeronautical weather chart ! - Copyright ORBIFLY December 2007 - Disclaimer

ORBIFLY MET'MAP TEAM :

Programming & Development : Alexandra Zaïnal
Original concept : Baudouin d'Aumeries
Technical & hardware support : Manuel Goepfert
Assistance : Marc-Olivier Méhu




SOURCES & CREDITS :

   NOAA       Earth
Advisory